createdAt,value
2022-12-14T00:01:34.358Z,99451.16
2022-12-14T00:04:00.945Z,99449.16
2022-12-14T00:06:29.905Z,99438.84
2022-12-14T00:08:59.063Z,99441.22
2022-12-14T00:11:26.050Z,99437.16
2022-12-14T00:13:58.224Z,99437.66
2022-12-14T00:16:27.817Z,99425.56
2022-12-14T00:18:57.760Z,99431.25
2022-12-14T00:21:24.428Z,99425.31
2022-12-14T00:23:52.130Z,99427.81
2022-12-14T00:26:24.312Z,99433.97
2022-12-14T00:28:52.462Z,99428.66
2022-12-14T00:31:19.610Z,99424.47
2022-12-14T00:33:46.754Z,99421.41
2022-12-14T00:36:13.718Z,99419.03
2022-12-14T00:38:40.909Z,99413.34
2022-12-14T00:41:08.065Z,99409.91
2022-12-14T00:43:34.798Z,99407.72
2022-12-14T00:46:01.490Z,99409.31
2022-12-14T00:48:28.653Z,99407.06
2022-12-14T00:50:56.082Z,99408.72
2022-12-14T00:53:23.766Z,99413.09
2022-12-14T00:55:50.712Z,99405.41
2022-12-14T00:58:20.194Z,99401.72
2022-12-14T01:00:48.382Z,99403.59
2022-12-14T01:03:15.303Z,99398.16
2022-12-14T01:05:42.074Z,99398.88
2022-12-14T01:08:15.889Z,99395.69
2022-12-14T01:10:42.577Z,99389.88
2022-12-14T01:13:11.138Z,99394.84
2022-12-14T01:15:37.879Z,99387.25
2022-12-14T01:18:04.839Z,99386.78
2022-12-14T01:20:31.435Z,99391.44
2022-12-14T01:22:58.085Z,99386.06
2022-12-14T01:25:24.914Z,99377.44
2022-12-14T01:27:51.694Z,99372.56
2022-12-14T01:30:19.280Z,99369.47
2022-12-14T01:32:46.789Z,99370.66
2022-12-14T01:35:13.604Z,99367.22
2022-12-14T01:37:40.272Z,99369.13
2022-12-14T01:40:07.851Z,99370.78
2022-12-14T01:42:37.955Z,99371.97
2022-12-14T01:45:06.114Z,99363.03
2022-12-14T01:47:42.403Z,99366.25
2022-12-14T01:50:27.247Z,99352.28
2022-12-14T01:52:56.961Z,99356.66
2022-12-14T01:55:34.311Z,99360.31
2022-12-14T01:58:20.448Z,99353.09
2022-12-14T02:00:47.649Z,99347.03
2022-12-14T02:03:38.353Z,99350.13
2022-12-14T02:06:06.148Z,99336.81
2022-12-14T02:08:33.103Z,99337.03
2022-12-14T02:11:00.031Z,99335.94
2022-12-14T02:13:29.686Z,99335.88
2022-12-14T02:15:56.646Z,99337.22
2022-12-14T02:18:27.693Z,99330.66
2022-12-14T02:21:12.278Z,99324.91
2022-12-14T02:23:45.106Z,99321.88
2022-12-14T02:26:44.216Z,99322.44
2022-12-14T02:29:19.758Z,99317.06
2022-12-14T02:31:46.259Z,99315.16
2022-12-14T02:34:35.156Z,99311.16
2022-12-14T02:37:17.512Z,99315.88
2022-12-14T02:40:01.367Z,99306.06
2022-12-14T02:42:36.993Z,99302.41
2022-12-14T02:45:16.977Z,99304.34
2022-12-14T02:47:54.384Z,99301.19
2022-12-14T02:50:29.978Z,99292.28
2022-12-14T02:53:08.898Z,99285.97
2022-12-14T02:55:37.708Z,99281.78
2022-12-14T02:58:13.650Z,99278.50
2022-12-14T03:00:40.816Z,99277.69
2022-12-14T03:03:07.508Z,99269.72
2022-12-14T03:05:35.009Z,99268.44
2022-12-14T03:08:08.776Z,99270.69
2022-12-14T03:10:41.539Z,99264.50
2022-12-14T03:13:49.190Z,99262.59
2022-12-14T03:16:16.001Z,99262.47
2022-12-14T03:18:50.221Z,99257.50
2022-12-14T03:21:21.021Z,99249.88
2022-12-14T03:23:49.107Z,99242.94
2022-12-14T03:26:38.386Z,99237.50
2022-12-14T03:29:11.453Z,99234.91
2022-12-14T03:31:42.147Z,99231.44
2022-12-14T03:34:13.024Z,99234.22
2022-12-14T03:36:59.216Z,99232.59
2022-12-14T03:39:29.743Z,99225.00
2022-12-14T03:42:05.323Z,99225.44
2022-12-14T03:44:33.919Z,99219.09
2022-12-14T03:47:19.388Z,99218.09
2022-12-14T03:50:30.823Z,99216.63
2022-12-14T03:53:00.140Z,99204.41
2022-12-14T03:55:44.760Z,99201.22
2022-12-14T03:58:57.003Z,99199.13
2022-12-14T04:01:44.569Z,99193.56
2022-12-14T04:04:35.752Z,99190.25
2022-12-14T04:07:23.379Z,99186.91
2022-12-14T04:09:59.410Z,99187.72
2022-12-14T04:12:54.381Z,99185.63
2022-12-14T04:15:43.884Z,99185.13
2022-12-14T04:18:34.891Z,99182.88
2022-12-14T04:21:07.741Z,99174.16
2022-12-14T04:23:57.053Z,99166.63
2022-12-14T04:26:29.313Z,99171.56
2022-12-14T04:29:18.100Z,99174.38
2022-12-14T04:31:49.267Z,99165.31
2022-12-14T04:34:17.296Z,99161.47
2022-12-14T04:36:50.181Z,99157.97
2022-12-14T04:39:22.474Z,99145.72
2022-12-14T04:41:52.402Z,99147.72
2022-12-14T04:44:26.367Z,99151.66
2022-12-14T04:46:53.710Z,99156.09
2022-12-14T04:49:24.333Z,99146.88
2022-12-14T04:52:14.600Z,99150.94
2022-12-14T04:54:55.193Z,99142.72
2022-12-14T04:57:36.846Z,99132.44
2022-12-14T05:00:05.601Z,99132.09
2022-12-14T05:03:00.281Z,99126.69
2022-12-14T05:05:36.951Z,99125.19
2022-12-14T05:08:12.443Z,99118.75
2022-12-14T05:10:46.051Z,99111.63
2022-12-14T05:13:30.941Z,99117.34
2022-12-14T05:15:58.519Z,99114.66
2022-12-14T05:18:25.629Z,99111.66
2022-12-14T05:20:52.205Z,99108.56
2022-12-14T05:23:18.892Z,99107.78
2022-12-14T05:25:45.455Z,99104.91
2022-12-14T05:28:15.979Z,99105.81
2022-12-14T05:30:42.706Z,99095.63
2022-12-14T05:33:19.601Z,99098.81
2022-12-14T05:35:46.625Z,99092.59
2022-12-14T05:38:13.243Z,99110.19
2022-12-14T05:40:42.481Z,99103.91
2022-12-14T05:43:12.179Z,99093.28
2022-12-14T05:45:38.862Z,99087.38
2022-12-14T05:48:05.749Z,99076.84
2022-12-14T05:50:32.432Z,99076.84
2022-12-14T05:52:59.091Z,99069.38
2022-12-14T05:55:25.763Z,99073.66
2022-12-14T05:57:52.436Z,99068.84
2022-12-14T06:00:19.135Z,99068.13
2022-12-14T06:02:45.893Z,99049.59
2022-12-14T06:05:12.545Z,99055.28
2022-12-14T06:07:39.661Z,99047.25
2022-12-14T06:10:06.702Z,99050.56
2022-12-14T06:12:33.284Z,99053.03
2022-12-14T06:14:59.914Z,99048.66
2022-12-14T06:17:26.491Z,99042.16
2022-12-14T06:19:53.119Z,99039.31
2022-12-14T06:22:20.794Z,99033.75
2022-12-14T06:24:47.376Z,99039.53
2022-12-14T06:27:13.969Z,99030.28
2022-12-14T06:29:40.639Z,99024.84
2022-12-14T06:32:07.239Z,99019.38
2022-12-14T06:34:38.460Z,99023.56
2022-12-14T06:37:06.252Z,99019.03
2022-12-14T06:39:32.862Z,99025.91
2022-12-14T06:41:59.473Z,99031.88
2022-12-14T06:44:26.070Z,99022.19
2022-12-14T06:46:52.745Z,99017.97
2022-12-14T06:49:19.465Z,99013.56
2022-12-14T06:51:46.020Z,99011.00
2022-12-14T06:54:13.717Z,99016.09
2022-12-14T06:56:41.409Z,99018.69
2022-12-14T06:59:08.812Z,99016.94
2022-12-14T07:01:36.924Z,99015.75
2022-12-14T07:04:04.328Z,99016.47
2022-12-14T07:06:39.436Z,99014.81
2022-12-14T07:09:07.549Z,99008.75
2022-12-14T07:11:34.219Z,99008.41
2022-12-14T07:14:03.144Z,99010.06
2022-12-14T07:16:29.684Z,99005.09
2022-12-14T07:18:56.606Z,99004.97
2022-12-14T07:21:23.939Z,99001.78
2022-12-14T07:23:52.462Z,98994.41
2022-12-14T07:26:27.482Z,99001.84
2022-12-14T07:28:54.753Z,98996.63
2022-12-14T07:31:23.911Z,98993.19
2022-12-14T07:33:55.137Z,98991.56
2022-12-14T07:36:22.911Z,98990.47
2022-12-14T07:38:50.761Z,98984.81
2022-12-14T07:41:23.515Z,98999.13
2022-12-14T07:43:52.135Z,98984.47
2022-12-14T07:46:24.259Z,98988.00
2022-12-14T07:48:53.347Z,98992.03
2022-12-14T07:51:22.847Z,98989.19
2022-12-14T07:53:50.696Z,98988.56
2022-12-14T07:56:23.104Z,98986.41
2022-12-14T07:58:49.840Z,98987.50
2022-12-14T08:01:25.314Z,98982.41
2022-12-14T08:03:54.363Z,98987.78
2022-12-14T08:06:23.389Z,98982.81
2022-12-14T08:08:50.228Z,98990.63
2022-12-14T08:11:17.042Z,98982.59
2022-12-14T08:13:43.878Z,98979.38
2022-12-14T08:16:15.845Z,98983.91
2022-12-14T08:18:43.468Z,98983.34
2022-12-14T08:21:12.440Z,98976.72
2022-12-14T08:23:39.147Z,98988.91
2022-12-14T08:26:07.386Z,98990.81
2022-12-14T08:28:35.220Z,98991.78
2022-12-14T08:31:10.911Z,98991.78
2022-12-14T08:33:38.627Z,99001.59
2022-12-14T08:36:08.048Z,98990.94
2022-12-14T08:38:34.814Z,98990.81
2022-12-14T08:41:05.694Z,98986.31
2022-12-14T08:43:32.975Z,98989.97
2022-12-14T08:45:59.938Z,98987.25
2022-12-14T08:48:26.627Z,98985.63
2022-12-14T08:50:53.573Z,98983.50
2022-12-14T08:53:20.419Z,98986.38
2022-12-14T08:55:47.041Z,98985.97
2022-12-14T08:58:13.997Z,98984.31
2022-12-14T09:00:40.609Z,98983.50
2022-12-14T09:03:07.621Z,98989.66
2022-12-14T09:05:35.062Z,98989.78
2022-12-14T09:08:01.805Z,98991.94
2022-12-14T09:10:28.433Z,98997.59
2022-12-14T09:12:55.071Z,98996.91
2022-12-14T09:15:21.947Z,98986.88
2022-12-14T09:17:49.857Z,98992.06
2022-12-14T09:20:16.708Z,98992.38
2022-12-14T09:22:43.473Z,98990.03
2022-12-14T09:25:10.125Z,98985.78
2022-12-14T09:27:36.800Z,98982.97
2022-12-14T09:30:04.232Z,98989.84
2022-12-14T09:32:31.068Z,98993.53
2022-12-14T09:34:59.811Z,98997.19
2022-12-14T09:37:26.453Z,98990.78
2022-12-14T09:39:53.181Z,98989.88
2022-12-14T09:42:38.562Z,98992.63
2022-12-14T09:45:17.327Z,98989.41
2022-12-14T09:47:49.740Z,98983.84
2022-12-14T09:50:19.337Z,98986.00
2022-12-14T09:52:53.321Z,98984.81
2022-12-14T09:55:24.427Z,98980.31
2022-12-14T09:57:55.723Z,98975.91
2022-12-14T10:00:22.740Z,98982.75
2022-12-14T10:03:08.810Z,98970.44
2022-12-14T10:06:00.088Z,98963.22
2022-12-14T10:08:58.976Z,98960.13
2022-12-14T10:11:40.759Z,98963.44
2022-12-14T10:14:52.282Z,98958.22
2022-12-14T10:18:05.657Z,98956.94
2022-12-14T10:20:34.960Z,98954.16
2022-12-14T10:23:02.373Z,98943.78
2022-12-14T10:25:31.667Z,98942.81
2022-12-14T10:28:12.786Z,98945.47
2022-12-14T10:30:41.960Z,98944.66
2022-12-14T10:33:14.806Z,98936.59
2022-12-14T10:35:51.152Z,98933.84
2022-12-14T10:38:23.715Z,98937.72
2022-12-14T10:40:52.100Z,98926.59
2022-12-14T10:43:44.146Z,98926.03
2022-12-14T10:46:28.987Z,98924.00
2022-12-14T10:49:09.022Z,98926.19
2022-12-14T10:51:38.756Z,98931.56
2022-12-14T10:54:17.491Z,98937.75
2022-12-14T10:56:49.853Z,98932.50
2022-12-14T10:59:25.823Z,98935.81
2022-12-14T11:02:18.632Z,98938.56
2022-12-14T11:04:51.495Z,98936.38
2022-12-14T11:07:21.841Z,98932.50
2022-12-14T11:09:48.982Z,98918.34
2022-12-14T11:12:24.830Z,98917.09
2022-12-14T11:15:01.471Z,98910.75
2022-12-14T11:17:36.563Z,98911.72
2022-12-14T11:20:09.523Z,98905.81
2022-12-14T11:22:50.840Z,98902.50
2022-12-14T11:25:37.705Z,98910.03
2022-12-14T11:28:16.772Z,98911.59
2022-12-14T11:30:55.772Z,98913.09
2022-12-14T11:33:22.846Z,98911.59
2022-12-14T11:35:52.690Z,98910.47
2022-12-14T11:38:19.938Z,98892.25
2022-12-14T11:40:47.108Z,98893.94
2022-12-14T11:43:24.431Z,98888.59
2022-12-14T11:45:51.646Z,98882.38
2022-12-14T11:48:24.239Z,98890.53
2022-12-14T11:50:53.111Z,98887.84
2022-12-14T11:53:20.948Z,98892.25
2022-12-14T11:55:52.576Z,98891.88
2022-12-14T11:58:22.579Z,98895.09
2022-12-14T12:00:59.572Z,98897.72
2022-12-14T12:03:32.604Z,98894.13
2022-12-14T12:06:06.232Z,98895.03
2022-12-14T12:08:35.683Z,98890.09
2022-12-14T12:11:15.400Z,98887.72
2022-12-14T12:13:45.034Z,98889.56
2022-12-14T12:16:20.301Z,98888.88
2022-12-14T12:18:54.937Z,98887.13
2022-12-14T12:21:25.434Z,98872.84
2022-12-14T12:24:17.507Z,98877.69
2022-12-14T12:26:55.911Z,98878.94
2022-12-14T12:29:32.156Z,98880.25
2022-12-14T12:32:17.258Z,98876.19
2022-12-14T12:34:57.086Z,98873.66
2022-12-14T12:37:36.831Z,98884.41
2022-12-14T12:40:24.535Z,98877.06
2022-12-14T12:43:01.948Z,98874.34
2022-12-14T12:45:34.991Z,98885.31
2022-12-14T12:48:25.520Z,98885.22
2022-12-14T12:50:55.901Z,98875.63
2022-12-14T12:53:30.216Z,98877.69
2022-12-14T12:56:16.979Z,98883.47
2022-12-14T12:58:50.663Z,98882.09
2022-12-14T13:01:36.109Z,98876.03
2022-12-14T13:04:10.243Z,98892.06
2022-12-14T13:06:50.583Z,98894.09
2022-12-14T13:09:35.298Z,98890.41
2022-12-14T13:12:02.980Z,98886.31
2022-12-14T13:14:35.126Z,98888.91
2022-12-14T13:17:04.547Z,98885.34
2022-12-14T13:19:54.661Z,98885.63
2022-12-14T13:22:30.180Z,98871.72
2022-12-14T13:25:00.229Z,98868.13
2022-12-14T13:27:42.436Z,98867.19
2022-12-14T13:30:27.172Z,98865.25
2022-12-14T13:33:31.336Z,98867.31
2022-12-14T13:36:26.137Z,98867.84
2022-12-14T13:39:18.142Z,98869.78
2022-12-14T13:42:09.339Z,98870.88
2022-12-14T13:45:01.374Z,98871.44
2022-12-14T13:47:53.965Z,98873.91
2022-12-14T13:50:54.217Z,98871.03
2022-12-14T13:53:34.696Z,98873.94
2022-12-14T13:56:02.277Z,98876.81
2022-12-14T13:58:49.393Z,98872.97
2022-12-14T14:01:48.209Z,98866.38
2022-12-14T14:04:32.365Z,98876.41
2022-12-14T14:07:25.243Z,98880.56
2022-12-14T14:09:54.954Z,98875.31
2022-12-14T14:12:24.207Z,98880.97
2022-12-14T14:14:52.623Z,98878.09
2022-12-14T14:17:30.012Z,98870.81
2022-12-14T14:19:57.823Z,98873.41
2022-12-14T14:22:27.463Z,98875.59
2022-12-14T14:24:58.778Z,98876.25
2022-12-14T14:27:44.974Z,98883.31
2022-12-14T14:30:29.994Z,98885.53
2022-12-14T14:33:20.047Z,98880.41
2022-12-14T14:35:44.609Z,98892.13
2022-12-14T14:38:25.474Z,98884.28
2022-12-14T14:41:15.991Z,98888.66
2022-12-14T14:43:49.878Z,98893.06
2022-12-14T14:46:22.171Z,98891.81
2022-12-14T14:48:50.589Z,98892.94
2022-12-14T14:51:20.602Z,98894.81
2022-12-14T14:53:50.254Z,98900.44
2022-12-14T14:56:29.355Z,98901.94
2022-12-14T14:59:14.771Z,98901.94
2022-12-14T15:01:48.399Z,98903.47
2022-12-14T15:04:23.489Z,98909.50
2022-12-14T15:06:57.409Z,98914.47
2022-12-14T15:09:33.992Z,98913.47
2022-12-14T15:12:06.905Z,98910.31
2022-12-14T15:14:46.618Z,98915.31
2022-12-14T15:17:18.197Z,98918.88
2022-12-14T15:19:49.546Z,98917.34
2022-12-14T15:22:19.547Z,98920.47
2022-12-14T15:24:48.862Z,98917.88
2022-12-14T15:27:28.754Z,98919.22
2022-12-14T15:30:05.817Z,98920.03
2022-12-14T15:32:32.883Z,98915.78
2022-12-14T15:35:06.490Z,98916.75
2022-12-14T15:37:56.453Z,98921.97
2022-12-14T15:40:28.051Z,98915.88
2022-12-14T15:43:01.970Z,98918.16
2022-12-14T15:45:34.697Z,98922.94
2022-12-14T15:48:31.064Z,98914.56
2022-12-14T15:51:00.351Z,98919.19
2022-12-14T15:53:31.883Z,98917.72
2022-12-14T15:56:11.786Z,98916.66
2022-12-14T15:58:40.831Z,98909.78
2022-12-14T16:01:14.115Z,98916.31
2022-12-14T16:03:43.799Z,98920.28
2022-12-14T16:06:11.360Z,98914.25
2022-12-14T16:08:44.652Z,98920.72
2022-12-14T16:11:19.385Z,98919.88
2022-12-14T16:13:46.345Z,98924.66
2022-12-14T16:16:13.690Z,98922.81
2022-12-14T16:18:50.619Z,98921.47
2022-12-14T16:21:30.289Z,98929.69
2022-12-14T16:23:58.030Z,98928.28
2022-12-14T16:26:37.632Z,98922.38
2022-12-14T16:29:23.089Z,98927.06
2022-12-14T16:31:49.990Z,98931.19
2022-12-14T16:34:20.604Z,98939.78
2022-12-14T16:37:14.554Z,98942.78
2022-12-14T16:39:44.793Z,98951.38
2022-12-14T16:42:25.557Z,98949.97
2022-12-14T16:44:54.079Z,98945.69
2022-12-14T16:47:20.634Z,98946.44
2022-12-14T16:49:51.694Z,98939.97
2022-12-14T16:52:23.873Z,98943.66
2022-12-14T16:55:09.348Z,98945.69
2022-12-14T16:57:39.615Z,98944.16
2022-12-14T17:00:07.451Z,98948.81
2022-12-14T17:02:34.600Z,98939.66
2022-12-14T17:05:05.662Z,98942.69
2022-12-14T17:07:33.520Z,98944.59
2022-12-14T17:10:00.321Z,98948.31
2022-12-14T17:12:27.214Z,98950.25
2022-12-14T17:14:54.076Z,98950.34
2022-12-14T17:17:34.182Z,98947.59
2022-12-14T17:20:02.165Z,98946.03
2022-12-14T17:22:30.698Z,98960.44
2022-12-14T17:24:59.236Z,98951.63
2022-12-14T17:27:26.810Z,98952.59
2022-12-14T17:29:54.683Z,98953.84
2022-12-14T17:32:22.465Z,98948.00
2022-12-14T17:34:49.212Z,98947.94
2022-12-14T17:37:20.666Z,98944.81
2022-12-14T17:39:47.483Z,98955.19
2022-12-14T17:42:17.195Z,98967.13
2022-12-14T17:44:54.362Z,98962.88
2022-12-14T17:47:22.596Z,98957.22
2022-12-14T17:49:49.377Z,98962.41
2022-12-14T17:52:24.165Z,98959.19
2022-12-14T17:54:50.785Z,98962.88
2022-12-14T17:57:22.622Z,98968.59
2022-12-14T17:59:49.857Z,98964.53
2022-12-14T18:02:28.855Z,98968.19
2022-12-14T18:04:55.890Z,98972.28
2022-12-14T18:07:22.578Z,98970.16
2022-12-14T18:09:50.591Z,98968.41
2022-12-14T18:12:25.118Z,98979.09
2022-12-14T18:14:52.322Z,98972.84
2022-12-14T18:17:19.159Z,98975.31
2022-12-14T18:19:47.896Z,98985.28
2022-12-14T18:22:16.722Z,98987.19
2022-12-14T18:24:43.358Z,98987.69
2022-12-14T18:27:13.725Z,98988.47
2022-12-14T18:29:40.622Z,98990.03
2022-12-14T18:32:11.259Z,98998.09
2022-12-14T18:34:37.955Z,98992.59
2022-12-14T18:37:04.640Z,98992.28
2022-12-14T18:39:31.265Z,98995.34
2022-12-14T18:41:57.847Z,98991.88
2022-12-14T18:44:24.739Z,98992.13
2022-12-14T18:46:51.383Z,98994.28
2022-12-14T18:49:17.951Z,98982.81
2022-12-14T18:51:44.611Z,98991.72
2022-12-14T18:54:11.550Z,98996.16
2022-12-14T18:56:40.974Z,98991.03
2022-12-14T18:59:07.695Z,98995.34
2022-12-14T19:01:34.482Z,98995.16
2022-12-14T19:04:01.369Z,98998.38
2022-12-14T19:06:44.027Z,99000.88
2022-12-14T19:09:12.732Z,99000.00
2022-12-14T19:11:41.716Z,98994.97
2022-12-14T19:14:08.519Z,99002.34
2022-12-14T19:16:35.272Z,98997.31
2022-12-14T19:19:01.941Z,99009.72
2022-12-14T19:21:29.659Z,99008.78
2022-12-14T19:23:56.699Z,99002.72
2022-12-14T19:26:23.347Z,99013.00
2022-12-14T19:28:50.067Z,99005.53
2022-12-14T19:31:16.955Z,99017.41
2022-12-14T19:33:43.654Z,99015.00
2022-12-14T19:36:10.846Z,99010.03
2022-12-14T19:38:37.910Z,99022.50
2022-12-14T19:41:07.625Z,99023.81
2022-12-14T19:43:35.243Z,99030.56
2022-12-14T19:46:10.106Z,99028.66
2022-12-14T19:48:38.074Z,99016.75
2022-12-14T19:51:06.713Z,99016.81
2022-12-14T19:53:34.876Z,99007.28
2022-12-14T19:56:01.721Z,98998.63
2022-12-14T19:58:29.121Z,98995.69
2022-12-14T20:00:56.067Z,99005.16
2022-12-14T20:03:22.832Z,99008.06
2022-12-14T20:05:55.228Z,99004.22
2022-12-14T20:08:22.535Z,99011.63
2022-12-14T20:10:49.309Z,99012.69
2022-12-14T20:13:16.172Z,99003.75
2022-12-14T20:15:53.704Z,99014.38
2022-12-14T20:18:21.797Z,99001.63
2022-12-14T20:20:49.427Z,99014.41
2022-12-14T20:23:17.634Z,99021.53
2022-12-14T20:25:44.782Z,99023.44
2022-12-14T20:28:11.399Z,99031.16
2022-12-14T20:30:45.742Z,99031.97
2022-12-14T20:33:12.761Z,99028.59
2022-12-14T20:35:39.471Z,99024.59
2022-12-14T20:38:06.137Z,99024.28
2022-12-14T20:40:37.999Z,99032.75
2022-12-14T20:43:06.507Z,99041.22
2022-12-14T20:45:40.531Z,99050.00
2022-12-14T20:48:07.960Z,99051.16
2022-12-14T20:50:38.614Z,99060.06
2022-12-14T20:53:05.841Z,99070.28
2022-12-14T20:55:34.049Z,99066.28
2022-12-14T20:58:01.420Z,99068.63
2022-12-14T21:00:28.458Z,99072.28
2022-12-14T21:02:55.233Z,99072.44
2022-12-14T21:05:21.997Z,99079.09
2022-12-14T21:07:48.803Z,99084.44
2022-12-14T21:10:15.456Z,99088.34
2022-12-14T21:12:42.041Z,99092.28
2022-12-14T21:15:09.022Z,99095.69
2022-12-14T21:17:35.629Z,99103.16
2022-12-14T21:20:02.309Z,99095.00
2022-12-14T21:22:30.455Z,99094.06
2022-12-14T21:25:06.031Z,99094.31
2022-12-14T21:27:34.844Z,99090.88
2022-12-14T21:30:01.756Z,99090.78
2022-12-14T21:32:28.454Z,99092.91
2022-12-14T21:34:55.052Z,99082.94
2022-12-14T21:37:22.623Z,99084.47
2022-12-14T21:39:54.995Z,99079.00
2022-12-14T21:42:23.845Z,99069.34
2022-12-14T21:44:51.893Z,99072.41
2022-12-14T21:47:20.089Z,99079.31
2022-12-14T21:49:47.499Z,99088.28
2022-12-14T21:52:18.157Z,99082.13
2022-12-14T21:54:44.997Z,99091.13
2022-12-14T21:57:35.551Z,99096.13
2022-12-14T22:00:02.693Z,99084.00
2022-12-14T22:02:39.182Z,99088.03
2022-12-14T22:05:06.527Z,99091.44
2022-12-14T22:07:34.021Z,99088.59
2022-12-14T22:10:00.758Z,99087.44
2022-12-14T22:12:27.615Z,99089.84
2022-12-14T22:14:54.248Z,99091.91
2022-12-14T22:17:20.881Z,99078.81
2022-12-14T22:19:48.990Z,99079.16
2022-12-14T22:22:16.320Z,99078.09
2022-12-14T22:24:43.481Z,99090.19
2022-12-14T22:27:11.837Z,99091.38
2022-12-14T22:29:38.460Z,99082.50
2022-12-14T22:32:06.061Z,99088.28
2022-12-14T22:34:32.710Z,99095.47
2022-12-14T22:36:59.426Z,99100.16
2022-12-14T22:39:25.996Z,99101.94
2022-12-14T22:41:52.601Z,99101.75
2022-12-14T22:44:19.190Z,99118.69
2022-12-14T22:46:46.897Z,99115.19
2022-12-14T22:49:16.805Z,99116.63
2022-12-14T22:51:43.431Z,99126.41
2022-12-14T22:54:21.409Z,99123.81
2022-12-14T22:57:01.167Z,99122.97
2022-12-14T22:59:37.559Z,99116.69
2022-12-14T23:02:05.071Z,99115.34
2022-12-14T23:04:31.892Z,99123.88
2022-12-14T23:06:58.499Z,99119.66
2022-12-14T23:09:43.370Z,99120.72
2022-12-14T23:12:28.507Z,99122.63
2022-12-14T23:15:13.761Z,99115.84
2022-12-14T23:17:58.943Z,99119.34
2022-12-14T23:20:44.221Z,99126.34
2022-12-14T23:23:29.768Z,99123.34
2022-12-14T23:26:20.149Z,99118.94
2022-12-14T23:29:05.495Z,99138.97
2022-12-14T23:31:50.771Z,99126.41
2022-12-14T23:34:35.732Z,99130.34
2022-12-14T23:37:20.979Z,99135.28
2022-12-14T23:40:06.723Z,99134.09
2022-12-14T23:42:52.058Z,99136.41
2022-12-14T23:45:37.417Z,99139.66
2022-12-14T23:48:22.615Z,99138.50
2022-12-14T23:51:07.922Z,99143.81
2022-12-14T23:53:53.226Z,99137.28
2022-12-14T23:56:38.495Z,99147.97
2022-12-14T23:59:27.972Z,99144.66
